In Rescue
 
Open Full Screen Window  High Contrast Mode
Wind Gusting 00 knots
06
January 17, 2021 12:17 PM CST
Weather Information
Wind Direction
  320 °
Wind Speed
  06 kt (7 mph)
Wind Gust
  00 kt (0 mph)
Altimeter
29.76 in
Visibility
7 SM
Temperature
-06° C
21° F
Dewpoint
-07° C
19° F
Humidity
93%
1hr Rain Fall
00.00 in.
24hr Rain Fall
00.00 in.
Sky Condition
Overcast @ 500 ft
IFR

METAR KFKA 171817Z AUTO 32006KT 7SM OVC005 M06/M07 A2976 RMK AO2 T10601068

FAA Disclaimer: The data displayed is for advisory purposes only and is not to be used for flight planning or operations.